createdAt,value
2023-01-28T00:01:42.471Z,5.20
2023-01-28T00:04:27.792Z,5.97
2023-01-28T00:07:12.988Z,6.70
2023-01-28T00:09:58.363Z,4.50
2023-01-28T00:12:43.560Z,4.50
2023-01-28T00:15:28.881Z,5.97
2023-01-28T00:18:14.617Z,6.07
2023-01-28T00:21:12.109Z,5.67
2023-01-28T00:23:57.628Z,4.87
2023-01-28T00:26:42.965Z,6.03
2023-01-28T00:29:28.320Z,6.10
2023-01-28T00:32:13.452Z,4.53
2023-01-28T00:34:58.738Z,5.87
2023-01-28T00:37:46.161Z,4.73
2023-01-28T00:40:31.982Z,5.10
2023-01-28T00:43:17.321Z,5.10
2023-01-28T00:46:02.853Z,6.10
2023-01-28T00:48:48.903Z,4.40
2023-01-28T00:51:34.513Z,5.40
2023-01-28T00:54:21.927Z,5.23
2023-01-28T00:57:08.084Z,4.27
2023-01-28T00:59:53.419Z,4.17
2023-01-28T01:02:41.974Z,4.97
2023-01-28T01:05:29.596Z,5.03
2023-01-28T01:08:14.809Z,4.30
2023-01-28T01:11:00.133Z,5.07
2023-01-28T01:13:49.572Z,4.83
2023-01-28T01:16:36.523Z,6.70
2023-01-28T01:19:21.669Z,5.43
2023-01-28T01:22:06.785Z,4.67
2023-01-28T01:24:52.491Z,4.97
2023-01-28T01:27:37.840Z,4.20
2023-01-28T01:30:23.780Z,4.40
2023-01-28T01:33:09.436Z,4.00
2023-01-28T01:35:55.216Z,4.27
2023-01-28T01:38:41.861Z,4.80
2023-01-28T01:41:33.439Z,4.83
2023-01-28T01:44:57.252Z,5.47
2023-01-28T01:51:01.563Z,4.70
2023-01-28T01:53:52.533Z,4.43
2023-01-28T01:56:42.657Z,4.63
2023-01-28T01:59:31.444Z,3.93
2023-01-28T02:02:17.457Z,4.50
2023-01-28T02:05:04.167Z,5.03
2023-01-28T02:07:55.072Z,4.37
2023-01-28T02:10:40.517Z,4.23
2023-01-28T02:13:36.117Z,5.17
2023-01-28T02:16:22.322Z,4.83
2023-01-28T02:19:09.750Z,3.90
2023-01-28T02:22:15.672Z,6.47
2023-01-28T02:25:25.078Z,4.00
2023-01-28T02:28:34.218Z,4.10
2023-01-28T02:31:27.360Z,4.23
2023-01-28T02:34:36.266Z,4.82
2023-01-28T02:37:25.700Z,4.63
2023-01-28T02:40:20.606Z,3.87
2023-01-28T02:43:06.222Z,3.93
2023-01-28T02:46:10.353Z,3.73
2023-01-28T02:48:55.792Z,3.63
2023-01-28T02:51:56.616Z,3.80
2023-01-28T02:54:41.922Z,6.27
2023-01-28T02:58:01.383Z,4.37
2023-01-28T03:01:01.789Z,4.37
2023-01-28T03:04:15.627Z,4.47
2023-01-28T03:07:05.480Z,3.83
2023-01-28T03:09:52.633Z,4.37
2023-01-28T03:12:59.755Z,4.80
2023-01-28T03:16:07.580Z,4.00
2023-01-28T03:19:12.898Z,2.93
2023-01-28T03:22:16.733Z,5.27
2023-01-28T03:25:21.239Z,3.13
2023-01-28T03:28:32.170Z,3.80
2023-01-28T03:31:41.032Z,4.37
2023-01-28T03:34:44.826Z,3.13
2023-01-28T03:37:32.457Z,4.20
2023-01-28T03:41:06.472Z,3.97
2023-01-28T03:43:53.472Z,3.83
2023-01-28T03:46:40.053Z,3.53
2023-01-28T03:49:25.420Z,3.47
2023-01-28T03:52:10.690Z,4.43
2023-01-28T03:54:56.829Z,3.23
2023-01-28T03:57:42.282Z,5.43
2023-01-28T04:00:27.500Z,2.87
2023-01-28T04:03:19.937Z,3.03
2023-01-28T04:06:31.713Z,4.00
2023-01-28T04:12:44.079Z,5.77
2023-01-28T04:15:31.086Z,4.23
2023-01-28T04:18:16.942Z,3.30
2023-01-28T04:21:03.235Z,4.20
2023-01-28T04:23:50.147Z,3.30
2023-01-28T04:26:35.235Z,4.27
2023-01-28T04:29:21.096Z,6.07
2023-01-28T04:32:11.464Z,4.13
2023-01-28T04:35:17.531Z,4.47
2023-01-28T04:38:24.017Z,3.60
2023-01-28T04:41:25.920Z,3.33
2023-01-28T04:44:11.185Z,3.27
2023-01-28T04:47:19.890Z,3.73
2023-01-28T04:50:44.594Z,3.80
2023-01-28T04:53:38.626Z,4.37
2023-01-28T04:56:42.852Z,2.80
2023-01-28T04:59:28.676Z,5.87
2023-01-28T05:02:14.960Z,3.50
2023-01-28T05:05:04.881Z,3.50
2023-01-28T05:08:00.139Z,4.90
2023-01-28T05:10:45.956Z,3.27
2023-01-28T05:13:32.048Z,3.40
2023-01-28T05:16:18.678Z,4.00
2023-01-28T05:19:04.117Z,3.07
2023-01-28T05:21:56.007Z,3.30
2023-01-28T05:24:50.383Z,5.60
2023-01-28T05:27:35.803Z,4.10
2023-01-28T05:30:22.228Z,3.17
2023-01-28T05:33:08.073Z,4.13
2023-01-28T05:35:53.509Z,3.80
2023-01-28T05:38:40.712Z,4.47
2023-01-28T05:41:26.183Z,2.87
2023-01-28T05:44:18.600Z,4.30
2023-01-28T05:47:16.077Z,4.03
2023-01-28T05:50:18.196Z,3.70
2023-01-28T05:53:23.447Z,3.97
2023-01-28T05:56:09.753Z,5.70
2023-01-28T05:58:56.654Z,6.13
2023-01-28T06:01:42.526Z,4.27
2023-01-28T06:04:27.771Z,4.20
2023-01-28T06:07:13.518Z,4.90
2023-01-28T06:10:01.464Z,5.83
2023-01-28T06:12:47.144Z,4.50
2023-01-28T06:15:51.428Z,4.67
2023-01-28T06:18:45.768Z,5.70
2023-01-28T06:21:31.594Z,5.73
2023-01-28T06:24:17.503Z,5.83
2023-01-28T06:27:02.935Z,3.13
2023-01-28T06:29:48.420Z,3.03
2023-01-28T06:32:35.420Z,5.33
2023-01-28T06:35:30.074Z,3.00
2023-01-28T06:38:19.915Z,3.73
2023-01-28T06:41:05.771Z,3.93
2023-01-28T06:43:51.471Z,3.97
2023-01-28T06:46:37.332Z,3.97
2023-01-28T06:49:23.185Z,3.27
2023-01-28T06:52:09.170Z,6.93
2023-01-28T06:54:55.331Z,11.30
2023-01-28T06:57:41.790Z,13.23
2023-01-28T07:00:27.141Z,15.00
2023-01-28T07:03:13.034Z,10.40
2023-01-28T07:05:58.393Z,11.90
2023-01-28T07:08:43.669Z,7.43
2023-01-28T07:11:29.109Z,9.43
2023-01-28T07:14:14.593Z,8.00
2023-01-28T07:17:00.015Z,10.93
2023-01-28T07:19:45.787Z,10.57
2023-01-28T07:22:30.944Z,8.07
2023-01-28T07:25:16.679Z,6.80
2023-01-28T07:28:02.648Z,6.60
2023-01-28T07:30:53.517Z,8.23
2023-01-28T07:33:39.151Z,5.77
2023-01-28T07:36:24.416Z,8.77
2023-01-28T07:39:10.219Z,7.40
2023-01-28T07:41:55.615Z,7.83
2023-01-28T07:44:57.984Z,8.43
2023-01-28T07:47:43.500Z,10.53
2023-01-28T07:50:30.940Z,8.57
2023-01-28T07:53:20.559Z,5.87
2023-01-28T07:56:08.768Z,6.47
2023-01-28T07:58:54.221Z,11.27
2023-01-28T08:01:40.046Z,4.87
2023-01-28T08:04:25.183Z,6.47
2023-01-28T08:07:10.600Z,5.73
2023-01-28T08:09:55.779Z,7.20
2023-01-28T08:12:41.150Z,6.57
2023-01-28T08:15:26.844Z,9.67
2023-01-28T08:18:15.499Z,7.13
2023-01-28T08:21:00.926Z,11.63
2023-01-28T08:23:46.565Z,7.97
2023-01-28T08:26:32.266Z,8.47
2023-01-28T08:29:17.810Z,11.10
2023-01-28T08:32:03.130Z,5.63
2023-01-28T08:34:48.798Z,8.03
2023-01-28T08:37:35.961Z,9.73
2023-01-28T08:40:22.283Z,8.07
2023-01-28T08:43:07.812Z,6.73
2023-01-28T08:45:54.585Z,7.63
2023-01-28T08:48:40.286Z,6.90
2023-01-28T08:51:26.647Z,9.27
2023-01-28T08:54:12.389Z,6.17
2023-01-28T08:56:58.729Z,5.40
2023-01-28T08:59:46.542Z,7.47
2023-01-28T09:02:32.596Z,7.10
2023-01-28T09:05:19.014Z,9.20
2023-01-28T09:08:10.626Z,7.40
2023-01-28T09:10:57.524Z,5.03
2023-01-28T09:13:43.089Z,7.57
2023-01-28T09:16:28.786Z,4.30
2023-01-28T09:19:15.785Z,10.53
2023-01-28T09:22:04.257Z,8.07
2023-01-28T09:24:50.056Z,7.27
2023-01-28T09:27:35.441Z,5.57
2023-01-28T09:30:21.356Z,9.03
2023-01-28T09:33:07.910Z,5.83
2023-01-28T09:35:53.518Z,5.47
2023-01-28T09:38:39.261Z,5.60
2023-01-28T09:41:49.789Z,5.20
2023-01-28T09:44:35.132Z,5.33
2023-01-28T09:47:27.120Z,6.90
2023-01-28T09:50:39.100Z,4.67
2023-01-28T09:53:31.092Z,6.80
2023-01-28T09:56:26.230Z,5.30
2023-01-28T09:59:22.911Z,7.07
2023-01-28T10:02:36.269Z,5.83
2023-01-28T10:05:46.578Z,7.20
2023-01-28T10:08:39.890Z,6.83
2023-01-28T10:11:25.331Z,6.95
2023-01-28T10:14:28.965Z,10.10
2023-01-28T10:17:26.899Z,5.93
2023-01-28T10:20:12.956Z,9.20
2023-01-28T10:23:08.175Z,6.70
2023-01-28T10:25:57.780Z,5.13
2023-01-28T10:28:43.506Z,5.60
2023-01-28T10:31:34.212Z,5.67
2023-01-28T10:34:20.979Z,5.03
2023-01-28T10:37:06.476Z,5.00
2023-01-28T10:39:56.836Z,6.40
2023-01-28T10:42:43.344Z,5.57
2023-01-28T10:45:34.865Z,6.10
2023-01-28T10:48:23.145Z,4.77
2023-01-28T10:51:08.848Z,7.17
2023-01-28T10:53:54.318Z,6.57
2023-01-28T10:56:43.312Z,4.93
2023-01-28T10:59:31.772Z,4.63
2023-01-28T11:02:33.220Z,5.20
2023-01-28T11:05:23.050Z,5.23
2023-01-28T11:08:18.949Z,4.57
2023-01-28T11:11:14.875Z,4.20
2023-01-28T11:14:01.293Z,4.33
2023-01-28T11:16:47.129Z,4.97
2023-01-28T11:19:35.819Z,4.13
2023-01-28T11:22:32.951Z,5.47
2023-01-28T11:25:27.312Z,4.50
2023-01-28T11:28:39.501Z,3.50
2023-01-28T11:31:26.588Z,4.43
2023-01-28T11:34:18.543Z,4.27
2023-01-28T11:37:12.523Z,3.13
2023-01-28T11:40:23.216Z,6.63
2023-01-28T11:43:09.429Z,5.27
2023-01-28T11:46:14.746Z,3.67
2023-01-28T11:49:12.101Z,5.40
2023-01-28T11:52:06.689Z,6.60
2023-01-28T11:55:18.187Z,3.30
2023-01-28T11:58:21.215Z,4.83
2023-01-28T12:01:20.843Z,5.95
2023-01-28T12:04:32.619Z,5.77
2023-01-28T12:07:54.337Z,6.17
2023-01-28T12:10:57.079Z,4.00
2023-01-28T12:14:35.080Z,4.50
2023-01-28T12:17:31.584Z,3.33
2023-01-28T12:20:31.285Z,3.90
2023-01-28T12:23:35.882Z,4.07
2023-01-28T12:26:47.177Z,5.17
2023-01-28T12:29:35.790Z,3.10
2023-01-28T12:32:32.671Z,5.60
2023-01-28T12:35:24.377Z,3.53
2023-01-28T12:38:20.075Z,5.13
2023-01-28T12:41:13.851Z,2.97
2023-01-28T12:44:03.576Z,4.77
2023-01-28T12:46:52.335Z,4.33
2023-01-28T12:49:50.685Z,6.73
2023-01-28T12:52:43.095Z,5.40
2023-01-28T12:55:45.591Z,4.73
2023-01-28T12:58:39.092Z,4.13
2023-01-28T13:01:35.251Z,3.80
2023-01-28T13:04:37.278Z,3.57
2023-01-28T13:07:34.426Z,4.35
2023-01-28T13:10:24.929Z,5.03
2023-01-28T13:13:42.415Z,4.97
2023-01-28T13:16:36.945Z,4.63
2023-01-28T13:19:37.030Z,4.70
2023-01-28T13:22:44.104Z,5.07
2023-01-28T13:25:29.429Z,3.73
2023-01-28T13:28:33.304Z,3.97
2023-01-28T13:34:08.591Z,4.33
2023-01-28T13:36:54.905Z,3.63
2023-01-28T13:39:48.766Z,5.37
2023-01-28T13:42:34.901Z,3.53
2023-01-28T13:45:23.228Z,4.67
2023-01-28T13:48:19.450Z,4.40
2023-01-28T13:51:16.484Z,3.83
2023-01-28T13:54:14.111Z,3.50
2023-01-28T13:56:59.584Z,4.17
2023-01-28T14:00:27.136Z,2.97
2023-01-28T14:03:30.971Z,7.63
2023-01-28T14:06:28.603Z,2.33
2023-01-28T14:10:00.113Z,4.63
2023-01-28T14:12:49.941Z,4.67
2023-01-28T14:16:00.732Z,4.17
2023-01-28T14:18:48.725Z,6.33
2023-01-28T14:21:35.869Z,5.33
2023-01-28T14:24:21.929Z,6.83
2023-01-28T14:27:18.407Z,5.47
2023-01-28T14:30:25.831Z,8.03
2023-01-28T14:33:12.537Z,3.57
2023-01-28T14:35:58.233Z,6.27
2023-01-28T14:38:45.449Z,10.77
2023-01-28T14:41:31.136Z,4.60
2023-01-28T14:44:37.039Z,3.47
2023-01-28T14:47:37.555Z,4.97
2023-01-28T14:50:50.497Z,5.50
2023-01-28T14:54:09.897Z,5.43
2023-01-28T14:57:26.041Z,4.87
2023-01-28T15:00:24.031Z,3.60
2023-01-28T15:03:24.962Z,4.27
2023-01-28T15:06:17.164Z,3.93
2023-01-28T15:09:08.664Z,3.53
2023-01-28T15:11:57.864Z,3.93
2023-01-28T15:14:44.700Z,2.73
2023-01-28T15:17:30.201Z,4.20
2023-01-28T15:20:23.014Z,3.57
2023-01-28T15:23:09.126Z,3.55
2023-01-28T15:25:55.519Z,3.83
2023-01-28T15:28:43.398Z,3.57
2023-01-28T15:31:32.737Z,4.70
2023-01-28T15:34:20.591Z,3.27
2023-01-28T15:37:05.918Z,4.53
2023-01-28T15:40:09.130Z,3.50
2023-01-28T15:42:57.672Z,3.90
2023-01-28T15:45:48.092Z,5.43
2023-01-28T15:48:35.489Z,2.13
2023-01-28T15:51:24.909Z,5.53
2023-01-28T15:54:11.121Z,4.87
2023-01-28T15:56:57.256Z,4.47
2023-01-28T15:59:44.883Z,5.80
2023-01-28T16:02:31.789Z,6.07
2023-01-28T16:05:43.056Z,4.80
2023-01-28T16:08:37.041Z,4.63
2023-01-28T16:11:26.383Z,3.13
2023-01-28T16:14:27.529Z,4.60
2023-01-28T16:17:20.264Z,4.20
2023-01-28T16:20:20.254Z,8.47
2023-01-28T16:23:21.905Z,5.90
2023-01-28T16:26:26.725Z,5.87
2023-01-28T16:29:16.006Z,3.87
2023-01-28T16:32:04.284Z,5.40
2023-01-28T16:34:50.109Z,5.03
2023-01-28T16:37:40.779Z,4.20
2023-01-28T16:40:29.721Z,4.53
2023-01-28T16:43:17.470Z,4.97
2023-01-28T16:46:04.181Z,7.07
2023-01-28T16:48:51.625Z,4.43
2023-01-28T16:51:41.007Z,5.30
2023-01-28T16:54:27.359Z,5.20
2023-01-28T16:57:22.231Z,5.00
2023-01-28T17:00:08.746Z,5.97
2023-01-28T17:02:55.037Z,5.47
2023-01-28T17:05:40.174Z,6.77
2023-01-28T17:08:25.415Z,9.03
2023-01-28T17:11:10.709Z,8.43
2023-01-28T17:13:55.962Z,8.03
2023-01-28T17:16:41.672Z,7.83
2023-01-28T17:19:26.976Z,12.57
2023-01-28T17:22:12.308Z,8.33
2023-01-28T17:24:57.484Z,9.87
2023-01-28T17:27:42.853Z,9.40
2023-01-28T17:30:28.189Z,9.17
2023-01-28T17:33:13.389Z,11.43
2023-01-28T17:35:58.926Z,9.80
2023-01-28T17:38:45.668Z,7.00
2023-01-28T17:41:30.966Z,9.93
2023-01-28T17:44:18.889Z,6.40
2023-01-28T17:47:04.254Z,11.07
2023-01-28T17:49:49.494Z,9.53
2023-01-28T17:52:34.968Z,7.87
2023-01-28T17:55:21.904Z,9.87
2023-01-28T17:58:08.628Z,7.80
2023-01-28T18:00:54.492Z,6.70
2023-01-28T18:03:41.279Z,10.07
2023-01-28T18:06:32.646Z,8.53
2023-01-28T18:09:19.424Z,8.63
2023-01-28T18:12:06.248Z,6.67
2023-01-28T18:14:51.939Z,7.67
2023-01-28T18:17:38.270Z,11.23
2023-01-28T18:20:24.335Z,10.67
2023-01-28T18:23:10.369Z,10.13
2023-01-28T18:26:01.763Z,10.93
2023-01-28T18:28:48.576Z,12.03
2023-01-28T18:31:34.741Z,10.63
2023-01-28T18:34:20.800Z,10.27
2023-01-28T18:37:13.069Z,10.73
2023-01-28T18:39:58.480Z,9.17
2023-01-28T18:42:43.620Z,15.60
2023-01-28T18:45:29.219Z,11.63
2023-01-28T18:48:15.177Z,9.87
2023-01-28T18:51:00.417Z,9.17
2023-01-28T18:53:45.802Z,10.03
2023-01-28T18:56:33.053Z,9.47
2023-01-28T18:59:18.767Z,8.93
2023-01-28T19:02:04.572Z,8.13
2023-01-28T19:04:49.983Z,8.00
2023-01-28T19:07:35.456Z,8.90
2023-01-28T19:10:23.686Z,7.47
2023-01-28T19:13:09.724Z,7.53
2023-01-28T19:15:56.436Z,7.93
2023-01-28T19:18:42.141Z,6.83
2023-01-28T19:21:29.149Z,6.20
2023-01-28T19:24:14.993Z,8.67
2023-01-28T19:27:00.106Z,8.40
2023-01-28T19:29:45.469Z,10.97
2023-01-28T19:32:30.688Z,9.90
2023-01-28T19:35:16.579Z,9.33
2023-01-28T19:38:03.361Z,9.00
2023-01-28T19:40:48.907Z,12.00
2023-01-28T19:43:35.657Z,9.70
2023-01-28T19:46:21.426Z,8.73
2023-01-28T19:49:06.740Z,8.23
2023-01-28T19:51:52.367Z,8.90
2023-01-28T19:54:37.736Z,8.43
2023-01-28T19:57:23.085Z,9.73
2023-01-28T20:00:09.373Z,8.27
2023-01-28T20:02:54.776Z,10.37
2023-01-28T20:05:40.198Z,8.43
2023-01-28T20:08:25.455Z,8.07
2023-01-28T20:11:15.904Z,8.50
2023-01-28T20:14:01.464Z,8.80
2023-01-28T20:16:47.409Z,8.43
2023-01-28T20:19:34.934Z,9.83
2023-01-28T20:22:21.461Z,8.70
2023-01-28T20:25:08.611Z,7.97
2023-01-28T20:27:54.269Z,8.53
2023-01-28T20:30:39.906Z,8.47
2023-01-28T20:33:25.128Z,12.87
2023-01-28T20:36:12.566Z,7.97
2023-01-28T20:38:58.583Z,7.00
2023-01-28T20:41:44.070Z,11.97
2023-01-28T20:44:32.162Z,8.30
2023-01-28T20:47:17.458Z,9.27
2023-01-28T20:50:02.841Z,16.07
2023-01-28T20:52:48.408Z,8.70
2023-01-28T20:55:33.689Z,11.47
2023-01-28T20:58:19.529Z,8.17
2023-01-28T21:01:05.089Z,8.53
2023-01-28T21:03:51.116Z,10.93
2023-01-28T21:06:36.686Z,9.80
2023-01-28T21:09:25.383Z,10.93
2023-01-28T21:12:10.792Z,9.03
2023-01-28T21:14:56.867Z,6.07
2023-01-28T21:17:42.446Z,7.40
2023-01-28T21:20:29.323Z,7.83
2023-01-28T21:23:15.717Z,8.93
2023-01-28T21:26:03.485Z,7.60
2023-01-28T21:28:49.095Z,9.37
2023-01-28T21:31:34.513Z,9.23
2023-01-28T21:34:20.022Z,10.17
2023-01-28T21:37:05.408Z,10.37
2023-01-28T21:39:50.561Z,7.60
2023-01-28T21:42:35.873Z,8.53
2023-01-28T21:45:21.124Z,7.03
2023-01-28T21:48:06.703Z,7.53
2023-01-28T21:51:11.400Z,8.63
2023-01-28T21:53:56.692Z,12.47
2023-01-28T21:56:43.846Z,7.03
2023-01-28T21:59:29.891Z,5.90
2023-01-28T22:02:15.688Z,5.20
2023-01-28T22:05:00.913Z,10.03
2023-01-28T22:07:46.202Z,8.57
2023-01-28T22:10:31.501Z,8.07
2023-01-28T22:13:17.104Z,5.97
2023-01-28T22:16:02.821Z,7.90
2023-01-28T22:18:50.374Z,9.10
2023-01-28T22:21:41.309Z,5.53
2023-01-28T22:24:27.505Z,5.63
2023-01-28T22:27:14.148Z,5.53
2023-01-28T22:29:59.272Z,10.30
2023-01-28T22:32:44.606Z,7.03
2023-01-28T22:35:30.304Z,5.93
2023-01-28T22:38:15.632Z,6.13
2023-01-28T22:41:09.674Z,6.30
2023-01-28T22:43:55.329Z,5.03
2023-01-28T22:46:40.639Z,5.83
2023-01-28T22:49:26.762Z,7.27
2023-01-28T22:52:12.203Z,7.37
2023-01-28T22:54:57.559Z,6.00
2023-01-28T22:57:42.731Z,7.27
2023-01-28T23:00:28.230Z,7.00
2023-01-28T23:03:14.158Z,5.60
2023-01-28T23:06:02.228Z,6.07
2023-01-28T23:08:49.500Z,5.57
2023-01-28T23:11:35.705Z,5.47
2023-01-28T23:14:39.519Z,5.70
2023-01-28T23:17:43.280Z,7.07
2023-01-28T23:20:47.204Z,5.77
2023-01-28T23:23:51.145Z,4.70
2023-01-28T23:29:24.831Z,6.33
2023-01-28T23:32:11.222Z,4.40
2023-01-28T23:34:56.842Z,5.30
2023-01-28T23:37:42.458Z,4.67
2023-01-28T23:40:27.839Z,5.60
2023-01-28T23:43:13.064Z,5.70
2023-01-28T23:45:58.397Z,4.90
2023-01-28T23:48:43.735Z,3.90
2023-01-28T23:51:29.034Z,4.47
2023-01-28T23:54:14.284Z,4.90
2023-01-28T23:57:00.644Z,5.37
2023-01-28T23:59:45.922Z,6.40
